Time;durP1;ratioP1;P1;durP2;ratioP2;P2;SDS_P1;SDS_P2;PMS_P1;PMS_P2;Temp;Humidity;BMP_temperature;BMP_pressure;BME280_temperature;BME280_humidity;BME280_pressure;Samples;Min_cycle;Max_cycle;Signal;HPM_P1;HPM_P2
2021/04/08 00:01:28;;;;;;;6.47;1.90;;;;;;;;;;5073798;28;20115;-76
2021/04/08 00:03:54;;;;;;;4.38;2.03;;;;;;;;;;5074023;28;20448;-76
2021/04/08 00:06:20;;;;;;;5.38;1.52;;;;;;;;;;5074125;28;20482;-76
2021/04/08 00:08:46;;;;;;;4.65;1.77;;;;;;;;;;5055690;28;20070;-76
2021/04/08 00:11:12;;;;;;;5.30;1.85;;;;;;;;;;5074357;28;20029;-76
2021/04/08 00:13:38;;;;;;;3.88;1.40;;;;;;;;;;5072793;28;20127;-76
2021/04/08 00:16:05;;;;;;;5.82;2.00;;;;;;;;;;5074220;28;20032;-76
2021/04/08 00:18:31;;;;;;;5.80;1.45;;;;;;;;;;5073454;28;20029;-76
2021/04/08 00:20:57;;;;;;;3.30;1.90;;;;;;;;;;5055922;28;20487;-76
2021/04/08 00:23:23;;;;;;;4.32;1.77;;;;;;;;;;5055172;28;20031;-76
2021/04/08 00:25:49;;;;;;;3.53;1.38;;;;;;;;;;5073748;28;20102;-76
2021/04/08 00:28:16;;;;;;;3.78;1.83;;;;;;;;;;5073591;28;20464;-76
2021/04/08 00:30:45;;;;;;;4.13;1.55;;;;;;;;;;5073523;28;20035;-76
2021/04/08 00:33:12;;;;;;;12.70;2.08;;;;;;;;;;5065401;28;20034;-76
2021/04/08 00:35:38;;;;;;;4.53;2.05;;;;;;;;;;5073234;28;20079;-76
2021/04/08 00:38:04;;;;;;;5.40;1.83;;;;;;;;;;5093712;28;20538;-76
2021/04/08 00:40:30;;;;;;;5.22;1.90;;;;;;;;;;5093366;28;20028;-76
2021/04/08 00:42:57;;;;;;;3.60;1.50;;;;;;;;;;5093707;28;20031;-76
2021/04/08 00:45:23;;;;;;;3.28;1.73;;;;;;;;;;5075195;28;20406;-76
2021/04/08 00:47:49;;;;;;;4.63;1.95;;;;;;;;;;5093711;28;20375;-76
2021/04/08 00:50:16;;;;;;;3.17;1.60;;;;;;;;;;5093511;28;20031;-76
2021/04/08 00:52:42;;;;;;;5.55;1.55;;;;;;;;;;5093428;28;20071;-76
2021/04/08 00:55:09;;;;;;;4.07;1.75;;;;;;;;;;5093692;28;20390;-76
2021/04/08 00:57:35;;;;;;;4.60;1.73;;;;;;;;;;5075137;28;20395;-76
2021/04/08 01:00:05;;;;;;;3.33;1.70;;;;;;;;;;5093135;28;20024;-76
2021/04/08 01:02:31;;;;;;;4.15;1.73;;;;;;;;;;5092692;28;20024;-76
2021/04/08 01:04:58;;;;;;;2.75;1.38;;;;;;;;;;5075102;28;20438;-76
2021/04/08 01:07:24;;;;;;;5.75;1.85;;;;;;;;;;5075006;28;20097;-76
2021/04/08 01:09:50;;;;;;;4.13;1.30;;;;;;;;;;5092979;28;20486;-76
2021/04/08 01:12:16;;;;;;;3.38;2.00;;;;;;;;;;5092681;28;20020;-76
2021/04/08 01:14:43;;;;;;;2.45;1.35;;;;;;;;;;5074432;28;20028;-76
2021/04/08 01:17:18;;;;;;;4.13;1.67;;;;;;;;;;5093341;28;20450;-76
2021/04/08 01:20:03;;;;;;;5.35;1.67;;;;;;;;;;5074683;28;20055;-76
2021/04/08 01:22:46;;;;;;;5.22;1.63;;;;;;;;;;5092653;28;20055;-76
2021/04/08 01:25:30;;;;;;;7.50;1.73;;;;;;;;;;5074691;28;20121;-76
2021/04/08 01:28:15;;;;;;;4.22;1.90;;;;;;;;;;5092980;28;20038;-76
2021/04/08 01:30:42;;;;;;;4.32;1.65;;;;;;;;;;5092737;28;20513;-76
2021/04/08 01:33:31;;;;;;;2.53;1.48;;;;;;;;;;5092478;28;20031;-76
2021/04/08 01:35:58;;;;;;;4.63;1.65;;;;;;;;;;5074504;28;20024;-76
2021/04/08 01:38:48;;;;;;;6.63;1.85;;;;;;;;;;5092638;28;20371;-76
2021/04/08 01:41:16;;;;;;;5.20;1.40;;;;;;;;;;5082103;28;20043;-76
2021/04/08 01:43:45;;;;;;;4.03;1.88;;;;;;;;;;5092183;28;20495;-76
2021/04/08 01:46:11;;;;;;;3.28;1.42;;;;;;;;;;5092513;28;20028;-76
2021/04/08 01:48:37;;;;;;;3.80;1.63;;;;;;;;;;5092893;28;20475;-76
2021/04/08 01:51:05;;;;;;;3.88;1.77;;;;;;;;;;5092501;28;20024;-76
2021/04/08 01:53:32;;;;;;;5.07;2.13;;;;;;;;;;5092198;28;20483;-76
2021/04/08 01:55:59;;;;;;;3.70;1.75;;;;;;;;;;5092523;28;20028;-76
2021/04/08 01:58:26;;;;;;;3.38;1.80;;;;;;;;;;5074368;28;20118;-76
2021/04/08 02:00:52;;;;;;;4.47;1.88;;;;;;;;;;5072600;28;20017;-76
2021/04/08 02:03:19;;;;;;;3.85;1.67;;;;;;;;;;5071964;28;20049;-76
2021/04/08 02:05:46;;;;;;;4.18;1.75;;;;;;;;;;5054380;28;20070;-76
2021/04/08 02:08:12;;;;;;;4.90;2.03;;;;;;;;;;5054430;28;20035;-76
2021/04/08 02:10:39;;;;;;;7.22;1.85;;;;;;;;;;5054386;28;20123;-76
2021/04/08 02:13:06;;;;;;;6.15;1.75;;;;;;;;;;5072642;28;20032;-76
2021/04/08 02:15:32;;;;;;;3.15;1.63;;;;;;;;;;5092271;28;20368;-76
2021/04/08 02:18:00;;;;;;;3.67;1.85;;;;;;;;;;5074393;28;20101;-76
2021/04/08 02:20:30;;;;;;;4.45;1.65;;;;;;;;;;5092439;28;20037;-76
2021/04/08 02:22:58;;;;;;;5.07;1.77;;;;;;;;;;5092757;28;20423;-76
2021/04/08 02:25:25;;;;;;;2.75;1.60;;;;;;;;;;5073986;28;20042;-76
2021/04/08 02:27:52;;;;;;;5.22;1.40;;;;;;;;;;5092983;28;20091;-76
2021/04/08 02:30:19;;;;;;;5.15;1.83;;;;;;;;;;5092231;28;20050;-76
2021/04/08 02:32:46;;;;;;;3.05;1.40;;;;;;;;;;5092449;28;20475;-76
2021/04/08 02:35:13;;;;;;;2.78;1.52;;;;;;;;;;5092241;28;20077;-76
2021/04/08 02:37:40;;;;;;;6.43;2.00;;;;;;;;;;5092083;28;20048;-76
2021/04/08 02:40:08;;;;;;;3.67;1.58;;;;;;;;;;5092139;28;20032;-76
2021/04/08 02:42:34;;;;;;;4.53;1.50;;;;;;;;;;5092202;28;20444;-76
2021/04/08 02:45:01;;;;;;;6.60;1.85;;;;;;;;;;5092825;28;20103;-76
2021/04/08 02:47:27;;;;;;;2.38;1.25;;;;;;;;;;5077345;28;20069;-76
2021/04/08 02:49:53;;;;;;;3.15;1.35;;;;;;;;;;5086112;28;20032;-76
2021/04/08 02:52:21;;;;;;;9.20;2.20;;;;;;;;;;5074906;28;20123;-76
2021/04/08 02:54:48;;;;;;;4.82;1.60;;;;;;;;;;5075476;28;20024;-76
2021/04/08 02:57:37;;;;;;;6.40;1.85;;;;;;;;;;5075513;28;20414;-76
2021/04/08 03:00:08;;;;;;;3.55;1.20;;;;;;;;;;5064547;28;20488;-76
2021/04/08 03:02:35;;;;;;;11.18;1.73;;;;;;;;;;5075077;28;20025;-76
2021/04/08 03:05:02;;;;;;;6.63;1.38;;;;;;;;;;5075515;28;20017;-76
2021/04/08 03:07:30;;;;;;;3.97;1.90;;;;;;;;;;5057070;28;20024;-76
2021/04/08 03:09:56;;;;;;;3.15;1.65;;;;;;;;;;5057238;28;20025;-76
2021/04/08 03:12:23;;;;;;;5.93;1.58;;;;;;;;;;5056818;28;20111;-76
2021/04/08 03:14:54;;;;;;;4.50;1.58;;;;;;;;;;5074589;28;20062;-76
2021/04/08 03:17:23;;;;;;;5.22;2.03;;;;;;;;;;5074789;28;20029;-76
2021/04/08 03:19:49;;;;;;;7.05;1.80;;;;;;;;;;5056982;28;20032;-76
2021/04/08 03:22:16;;;;;;;5.07;2.03;;;;;;;;;;5074483;28;20110;-76
2021/04/08 03:24:42;;;;;;;5.55;1.80;;;;;;;;;;5074743;28;20031;-76
2021/04/08 03:27:09;;;;;;;4.10;1.98;;;;;;;;;;5074424;28;20108;-76
2021/04/08 03:29:36;;;;;;;5.63;1.70;;;;;;;;;;5074507;28;20036;-76
2021/04/08 03:32:02;;;;;;;5.50;1.98;;;;;;;;;;5074382;28;20500;-76
2021/04/08 03:34:29;;;;;;;4.30;1.85;;;;;;;;;;5074643;28;20028;-76
2021/04/08 03:36:55;;;;;;;3.78;1.85;;;;;;;;;;5074160;28;20039;-76
2021/04/08 03:39:21;;;;;;;5.43;2.00;;;;;;;;;;5056280;28;20028;-76
2021/04/08 03:41:47;;;;;;;4.97;2.25;;;;;;;;;;5055629;28;20029;-76
2021/04/08 03:44:15;;;;;;;4.18;1.60;;;;;;;;;;5056504;28;20024;-76
2021/04/08 03:46:43;;;;;;;4.55;1.85;;;;;;;;;;5074531;28;20048;-76
2021/04/08 03:49:12;;;;;;;8.38;2.00;;;;;;;;;;5074745;28;20031;-76
2021/04/08 03:51:39;;;;;;;5.22;2.00;;;;;;;;;;5073661;28;20033;-76
2021/04/08 03:54:07;;;;;;;7.25;1.80;;;;;;;;;;5074046;28;20024;-76
2021/04/08 03:56:34;;;;;;;9.07;2.15;;;;;;;;;;5056086;28;20111;-76
2021/04/08 03:59:00;;;;;;;8.65;2.17;;;;;;;;;;5073916;28;20495;-76
2021/04/08 04:01:27;;;;;;;5.63;1.67;;;;;;;;;;5055276;28;20028;-76
2021/04/08 04:03:53;;;;;;;8.90;2.35;;;;;;;;;;5070339;28;20056;-76
2021/04/08 04:06:20;;;;;;;5.35;2.00;;;;;;;;;;5055439;28;20025;-76
2021/04/08 04:08:46;;;;;;;5.28;1.65;;;;;;;;;;5073749;28;20075;-76
2021/04/08 04:11:12;;;;;;;3.00;1.63;;;;;;;;;;5073711;28;20056;-76
2021/04/08 04:13:40;;;;;;;4.53;1.92;;;;;;;;;;5072970;28;20040;-76
2021/04/08 04:16:07;;;;;;;6.35;1.77;;;;;;;;;;5073853;28;20024;-76
2021/04/08 04:18:33;;;;;;;1.98;1.00;;;;;;;;;;5055968;28;20029;-76
2021/04/08 04:21:00;;;;;;;7.85;1.55;;;;;;;;;;5055479;28;20036;-76
2021/04/08 04:23:26;;;;;;;4.43;1.75;;;;;;;;;;5072936;28;20037;-76
2021/04/08 04:25:53;;;;;;;9.35;2.00;;;;;;;;;;5055449;28;20487;-76
2021/04/08 04:28:19;;;;;;;5.80;1.73;;;;;;;;;;5055591;28;20446;-76
2021/04/08 04:30:45;;;;;;;4.10;1.70;;;;;;;;;;5073834;28;20024;-76
2021/04/08 04:33:11;;;;;;;2.95;1.80;;;;;;;;;;5055627;28;20081;-76
2021/04/08 04:35:37;;;;;;;4.45;1.92;;;;;;;;;;5073963;28;20024;-76
2021/04/08 04:38:03;;;;;;;7.03;2.05;;;;;;;;;;5072840;28;20056;-76
2021/04/08 04:40:29;;;;;;;53.72;5.82;;;;;;;;;;5076264;28;20024;-78
2021/04/08 04:42:55;;;;;;;4.57;1.63;;;;;;;;;;5054952;28;20024;-77
2021/04/08 04:45:21;;;;;;;2.88;1.38;;;;;;;;;;5073703;28;20380;-77
2021/04/08 04:47:48;;;;;;;6.10;2.10;;;;;;;;;;5073008;28;20020;-77
2021/04/08 04:50:14;;;;;;;5.75;1.80;;;;;;;;;;5055109;28;20031;-77
2021/04/08 04:52:40;;;;;;;8.02;1.98;;;;;;;;;;5072832;28;20086;-76
2021/04/08 04:55:07;;;;;;;7.97;1.85;;;;;;;;;;5054854;28;20123;-77
2021/04/08 04:57:33;;;;;;;4.70;2.10;;;;;;;;;;5054910;28;20028;-76
2021/04/08 04:59:59;;;;;;;3.45;1.48;;;;;;;;;;5072571;28;20032;-76
2021/04/08 05:02:26;;;;;;;8.65;1.70;;;;;;;;;;5072655;28;20031;-76
2021/04/08 05:04:52;;;;;;;3.90;1.80;;;;;;;;;;5073110;28;20491;-76
2021/04/08 05:07:18;;;;;;;5.97;1.70;;;;;;;;;;5072549;28;20028;-76
2021/04/08 05:09:44;;;;;;;6.60;2.30;;;;;;;;;;5072575;28;20475;-76
2021/04/08 05:12:10;;;;;;;4.55;2.03;;;;;;;;;;5072303;28;20036;-76
2021/04/08 05:14:36;;;;;;;4.68;1.83;;;;;;;;;;5054542;28;20041;-76
2021/04/08 05:17:02;;;;;;;7.18;2.05;;;;;;;;;;5072893;28;20032;-76
2021/04/08 05:19:29;;;;;;;4.78;2.42;;;;;;;;;;5054681;28;20123;-76
2021/04/08 05:21:55;;;;;;;7.18;1.70;;;;;;;;;;5072278;28;20160;-76
2021/04/08 05:24:21;;;;;;;7.03;1.60;;;;;;;;;;5072735;28;20028;-77
2021/04/08 05:26:47;;;;;;;3.20;1.50;;;;;;;;;;5072670;28;20138;-77
2021/04/08 05:29:13;;;;;;;6.07;1.90;;;;;;;;;;5072570;28;20024;-77
2021/04/08 05:31:39;;;;;;;3.25;1.67;;;;;;;;;;5072272;28;20087;-77
2021/04/08 05:34:05;;;;;;;3.42;1.58;;;;;;;;;;5072609;28;20495;-76
2021/04/08 05:36:31;;;;;;;4.25;1.58;;;;;;;;;;5072583;28;20063;-76
2021/04/08 05:38:57;;;;;;;10.85;2.22;;;;;;;;;;5054243;28;20032;-76
2021/04/08 05:41:23;;;;;;;7.72;1.90;;;;;;;;;;5072007;28;20025;-76
2021/04/08 05:43:50;;;;;;;16.67;2.35;;;;;;;;;;5055182;28;20068;-76
2021/04/08 05:46:16;;;;;;;7.57;2.47;;;;;;;;;;5052766;28;20024;-76
2021/04/08 05:48:42;;;;;;;6.38;2.75;;;;;;;;;;5052439;28;20021;-77
2021/04/08 05:51:09;;;;;;;12.20;2.65;;;;;;;;;;5052448;28;20029;-77
2021/04/08 05:53:35;;;;;;;15.95;2.88;;;;;;;;;;5051814;28;20090;-76
2021/04/08 05:56:01;;;;;;;14.90;3.45;;;;;;;;;;5052448;28;20451;-76
2021/04/08 05:58:27;;;;;;;7.38;2.83;;;;;;;;;;5052349;28;20033;-76
2021/04/08 06:00:53;;;;;;;13.45;2.45;;;;;;;;;;5072480;28;20037;-76
2021/04/08 06:03:19;;;;;;;4.60;2.05;;;;;;;;;;5072366;28;20099;-76
2021/04/08 06:05:45;;;;;;;7.53;2.42;;;;;;;;;;5072303;28;20025;-76
2021/04/08 06:08:11;;;;;;;6.00;2.17;;;;;;;;;;5071998;28;20021;-76
2021/04/08 06:10:37;;;;;;;10.70;3.15;;;;;;;;;;5050334;28;20028;-76
2021/04/08 06:13:03;;;;;;;14.38;2.60;;;;;;;;;;5035820;28;20079;-76
2021/04/08 06:15:30;;;;;;;22.20;2.17;;;;;;;;;;5072188;28;20029;-76
2021/04/08 06:17:56;;;;;;;14.02;2.50;;;;;;;;;;5072105;28;20021;-76
2021/04/08 06:20:24;;;;;;;8.00;2.60;;;;;;;;;;5056799;28;20040;-76
2021/04/08 06:22:53;;;;;;;14.70;4.10;;;;;;;;;;5076517;28;20021;-76
2021/04/08 06:25:19;;;;;;;12.05;2.95;;;;;;;;;;5076008;28;20430;-77
2021/04/08 06:27:45;;;;;;;12.82;1.92;;;;;;;;;;5075967;28;20023;-76
2021/04/08 06:30:12;;;;;;;8.27;2.83;;;;;;;;;;5075594;28;20545;-78
2021/04/08 06:32:41;;;;;;;13.10;2.13;;;;;;;;;;5075871;28;20032;-77
2021/04/08 06:35:07;;;;;;;13.50;2.88;;;;;;;;;;5057490;28;20036;-76
2021/04/08 06:37:33;;;;;;;17.45;2.92;;;;;;;;;;5057690;28;20064;-77
2021/04/08 06:39:59;;;;;;;15.60;3.00;;;;;;;;;;5075350;28;20036;-77
2021/04/08 06:42:27;;;;;;;15.07;2.65;;;;;;;;;;5057104;28;20051;-77
2021/04/08 06:44:53;;;;;;;17.67;3.20;;;;;;;;;;5075355;28;20033;-76
2021/04/08 06:47:23;;;;;;;22.50;4.22;;;;;;;;;;5075549;28;20040;-76
2021/04/08 06:49:54;;;;;;;20.20;4.18;;;;;;;;;;5075268;28;20033;-76
2021/04/08 06:52:20;;;;;;;16.30;3.33;;;;;;;;;;5057200;28;20521;-76
2021/04/08 06:54:47;;;;;;;10.50;2.45;;;;;;;;;;5075208;28;20399;-76
2021/04/08 06:57:16;;;;;;;13.25;2.75;;;;;;;;;;5075695;28;20471;-77
2021/04/08 06:59:42;;;;;;;8.35;2.95;;;;;;;;;;5081759;28;20039;-76
2021/04/08 07:02:11;;;;;;;12.55;5.22;;;;;;;;;;5073078;28;20016;-76
2021/04/08 07:04:37;;;;;;;12.48;3.40;;;;;;;;;;5064660;28;20039;-76
2021/04/08 07:07:03;;;;;;;7.70;2.47;;;;;;;;;;5067916;28;20567;-76
2021/04/08 07:09:29;;;;;;;7.53;2.63;;;;;;;;;;5049100;28;20045;-76
2021/04/08 07:11:55;;;;;;;9.63;2.80;;;;;;;;;;5061560;28;20115;-76
2021/04/08 07:14:21;;;;;;;7.03;2.47;;;;;;;;;;5072037;28;20037;-76
2021/04/08 07:16:47;;;;;;;11.13;2.92;;;;;;;;;;5060843;28;20090;-77
2021/04/08 07:19:14;;;;;;;9.07;2.92;;;;;;;;;;5074223;28;20104;-75
2021/04/08 07:21:41;;;;;;;7.35;2.80;;;;;;;;;;5072336;28;20025;-76
2021/04/08 07:24:17;;;;;;;9.77;3.22;;;;;;;;;;5080787;28;20028;-76
2021/04/08 07:26:58;;;;;;;8.63;2.97;;;;;;;;;;5074504;28;20465;-76
2021/04/08 07:29:45;;;;;;;10.10;3.08;;;;;;;;;;5080465;28;20071;-79
2021/04/08 07:32:12;;;;;;;10.70;3.35;;;;;;;;;;5077727;28;20340;-76
2021/04/08 07:34:45;;;;;;;18.15;3.45;;;;;;;;;;5073459;28;20111;-76
2021/04/08 07:37:12;;;;;;;8.02;3.17;;;;;;;;;;5063584;28;20024;-75
2021/04/08 07:39:42;;;;;;;10.10;3.45;;;;;;;;;;5078782;28;20922;-74
2021/04/08 07:42:15;;;;;;;11.43;3.65;;;;;;;;;;5076722;28;20021;-75
2021/04/08 07:44:42;;;;;;;9.88;3.50;;;;;;;;;;5055383;28;20028;-75
2021/04/08 07:47:22;;;;;;;13.57;3.65;;;;;;;;;;5086886;28;20020;-75
2021/04/08 07:49:52;;;;;;;11.90;3.90;;;;;;;;;;5094168;28;20042;-75
2021/04/08 07:52:21;;;;;;;7.97;3.80;;;;;;;;;;5056325;28;20028;-75
2021/04/08 07:55:06;;;;;;;7.60;3.58;;;;;;;;;;5073512;28;20028;-75
2021/04/08 07:57:49;;;;;;;9.82;3.63;;;;;;;;;;5072998;28;20024;-76
2021/04/08 08:00:23;;;;;;;12.10;3.25;;;;;;;;;;5067040;28;20410;-75
2021/04/08 08:02:49;;;;;;;10.18;2.78;;;;;;;;;;5071386;28;20425;-75
2021/04/08 08:05:16;;;;;;;7.32;2.78;;;;;;;;;;5072362;28;20411;-75
2021/04/08 08:07:42;;;;;;;8.43;2.45;;;;;;;;;;5072211;28;20413;-75
2021/04/08 08:10:13;;;;;;;11.10;3.08;;;;;;;;;;5072473;28;20025;-75
2021/04/08 08:12:39;;;;;;;12.35;3.33;;;;;;;;;;5048940;28;20119;-76
2021/04/08 08:15:17;;;;;;;12.02;3.15;;;;;;;;;;5073461;28;20109;-75
2021/04/08 08:17:43;;;;;;;6.05;2.85;;;;;;;;;;5072677;28;20056;-75
2021/04/08 08:20:09;;;;;;;7.97;2.40;;;;;;;;;;5073881;28;20064;-75
2021/04/08 08:22:37;;;;;;;6.95;2.47;;;;;;;;;;5072066;28;20040;-76
2021/04/08 08:25:04;;;;;;;11.70;3.78;;;;;;;;;;5072414;28;20025;-76
2021/04/08 08:27:45;;;;;;;8.55;3.45;;;;;;;;;;5072064;28;20409;-75
2021/04/08 08:30:21;;;;;;;6.30;2.65;;;;;;;;;;5071245;28;20494;-76
2021/04/08 08:33:06;;;;;;;4.03;1.60;;;;;;;;;;5054170;28;20035;-76
2021/04/08 08:35:32;;;;;;;8.57;3.00;;;;;;;;;;5070941;28;20021;-76
2021/04/08 08:38:09;;;;;;;7.03;2.00;;;;;;;;;;5072613;28;20050;-76
2021/04/08 08:40:36;;;;;;;6.43;2.53;;;;;;;;;;5063058;28;20553;-75
2021/04/08 08:43:02;;;;;;;6.85;2.85;;;;;;;;;;5058081;28;20017;-76
2021/04/08 08:45:29;;;;;;;7.80;3.25;;;;;;;;;;5071260;28;20035;-76
2021/04/08 08:47:55;;;;;;;9.27;2.60;;;;;;;;;;5070426;28;20975;-76
2021/04/08 08:50:22;;;;;;;7.05;3.15;;;;;;;;;;5068498;28;20063;-75
2021/04/08 08:52:50;;;;;;;8.43;2.97;;;;;;;;;;5072560;28;20024;-76
2021/04/08 08:55:17;;;;;;;5.85;2.78;;;;;;;;;;5072409;28;20036;-75
2021/04/08 08:57:45;;;;;;;9.18;3.25;;;;;;;;;;5072113;28;20360;-75
2021/04/08 09:00:12;;;;;;;6.80;3.08;;;;;;;;;;5072154;28;20083;-76
2021/04/08 09:02:40;;;;;;;11.10;3.55;;;;;;;;;;5051020;28;20446;-76
2021/04/08 09:05:13;;;;;;;8.20;3.63;;;;;;;;;;5051298;28;20029;-76
2021/04/08 09:07:40;;;;;;;16.33;4.15;;;;;;;;;;5067854;28;20048;-76
2021/04/08 09:10:07;;;;;;;10.15;3.75;;;;;;;;;;5072159;28;20501;-76
2021/04/08 09:12:33;;;;;;;10.00;4.45;;;;;;;;;;5071881;28;20040;-76
2021/04/08 09:14:59;;;;;;;18.00;5.32;;;;;;;;;;5072068;28;20076;-75
2021/04/08 09:17:45;;;;;;;16.25;5.35;;;;;;;;;;5072153;28;20025;-75
2021/04/08 09:20:13;;;;;;;11.45;4.80;;;;;;;;;;5071624;28;20033;-75
2021/04/08 09:22:59;;;;;;;10.75;5.20;;;;;;;;;;5071689;28;20390;-75
2021/04/08 09:25:30;;;;;;;25.13;7.53;;;;;;;;;;5070863;28;20036;-75
2021/04/08 09:27:57;;;;;;;26.42;8.32;;;;;;;;;;5072185;28;20463;-75
2021/04/08 09:30:49;;;;;;;17.75;7.28;;;;;;;;;;5071803;28;20051;-75
2021/04/08 09:33:16;;;;;;;19.25;7.70;;;;;;;;;;5072388;28;20023;-75
2021/04/08 09:35:43;;;;;;;20.13;7.70;;;;;;;;;;5089391;28;20406;-75
2021/04/08 09:38:09;;;;;;;28.02;9.25;;;;;;;;;;5085905;28;20027;-76
2021/04/08 09:40:44;;;;;;;16.35;7.75;;;;;;;;;;5071240;28;20051;-76
2021/04/08 09:43:11;;;;;;;18.45;7.90;;;;;;;;;;5054519;28;20027;-76
2021/04/08 09:45:43;;;;;;;15.45;8.75;;;;;;;;;;5071502;28;20078;-75
2021/04/08 09:48:13;;;;;;;22.88;8.50;;;;;;;;;;5071896;28;20016;-76
2021/04/08 09:50:54;;;;;;;14.35;7.38;;;;;;;;;;5072833;28;20498;-75
2021/04/08 09:53:46;;;;;;;16.02;7.50;;;;;;;;;;5054416;28;20355;-76
2021/04/08 09:56:12;;;;;;;24.70;10.45;;;;;;;;;;5071879;28;20039;-76
2021/04/08 09:58:39;;;;;;;25.77;9.48;;;;;;;;;;5074988;28;20047;-77
2021/04/08 10:01:06;;;;;;;22.13;10.32;;;;;;;;;;5075442;28;20155;-76
2021/04/08 10:03:32;;;;;;;23.55;11.75;;;;;;;;;;5055181;28;20475;-76
2021/04/08 10:05:59;;;;;;;22.23;11.43;;;;;;;;;;5068059;28;20098;-77
2021/04/08 10:08:26;;;;;;;20.63;10.80;;;;;;;;;;5075907;28;20029;-77
2021/04/08 10:10:52;;;;;;;20.13;11.45;;;;;;;;;;5075212;28;20048;-75
2021/04/08 10:13:28;;;;;;;22.95;10.70;;;;;;;;;;5075638;28;20383;-76
2021/04/08 10:15:56;;;;;;;26.60;10.98;;;;;;;;;;5076664;28;20039;-75
2021/04/08 10:18:25;;;;;;;20.23;9.98;;;;;;;;;;5076506;28;20091;-76
2021/04/08 10:20:52;;;;;;;23.25;10.45;;;;;;;;;;5074865;28;20054;-78
2021/04/08 10:23:33;;;;;;;21.38;10.65;;;;;;;;;;5075554;28;20109;-77
2021/04/08 10:26:01;;;;;;;24.77;9.68;;;;;;;;;;5057439;28;20082;-76
2021/04/08 10:28:38;;;;;;;20.25;10.00;;;;;;;;;;5076590;28;20471;-76
2021/04/08 10:31:23;;;;;;;25.90;10.77;;;;;;;;;;5059450;28;20040;-76
2021/04/08 10:33:51;;;;;;;22.35;10.80;;;;;;;;;;5076947;28;20054;-76
2021/04/08 10:36:31;;;;;;;16.08;9.75;;;;;;;;;;5077209;28;20075;-77
2021/04/08 10:39:03;;;;;;;17.27;9.10;;;;;;;;;;5055766;28;20029;-77
2021/04/08 10:41:29;;;;;;;22.70;10.40;;;;;;;;;;5067561;28;20028;-77
2021/04/08 10:43:56;;;;;;;17.20;10.02;;;;;;;;;;5063711;28;20025;-77
2021/04/08 10:46:22;;;;;;;19.67;9.40;;;;;;;;;;5061354;28;20043;-77
2021/04/08 10:48:48;;;;;;;19.17;10.45;;;;;;;;;;5052086;28;20037;-77
2021/04/08 10:51:14;;;;;;;19.20;9.00;;;;;;;;;;5053673;28;20038;-76
2021/04/08 10:53:45;;;;;;;16.95;7.68;;;;;;;;;;5072281;28;20090;-75
2021/04/08 10:56:12;;;;;;;12.60;6.88;;;;;;;;;;5066240;28;20021;-74
2021/04/08 10:58:38;;;;;;;13.10;7.03;;;;;;;;;;5047152;28;20021;-74
2021/04/08 11:01:04;;;;;;;15.32;7.15;;;;;;;;;;5054969;28;20037;-74
2021/04/08 11:03:30;;;;;;;14.80;6.72;;;;;;;;;;5073520;28;20025;-75
2021/04/08 11:05:56;;;;;;;12.05;6.50;;;;;;;;;;5052318;28;20515;-75
2021/04/08 11:08:22;;;;;;;15.02;6.28;;;;;;;;;;5059348;28;20574;-76
2021/04/08 11:10:48;;;;;;;10.13;5.00;;;;;;;;;;5077310;28;20024;-75
2021/04/08 11:13:14;;;;;;;8.13;4.57;;;;;;;;;;5092993;28;20136;-75
2021/04/08 11:15:44;;;;;;;9.23;4.03;;;;;;;;;;5079456;28;20146;-75
2021/04/08 11:18:11;;;;;;;6.47;4.38;;;;;;;;;;5074138;28;20024;-75
2021/04/08 11:20:37;;;;;;;8.77;3.78;;;;;;;;;;5073876;28;20490;-75
2021/04/08 11:23:04;;;;;;;18.33;4.68;;;;;;;;;;5074203;28;20020;-75
2021/04/08 11:25:31;;;;;;;11.88;3.40;;;;;;;;;;5088266;28;20476;-75
2021/04/08 11:28:01;;;;;;;9.02;3.35;;;;;;;;;;5095166;28;20024;-75
2021/04/08 11:30:28;;;;;;;14.55;4.22;;;;;;;;;;5075901;28;20039;-75
2021/04/08 11:32:54;;;;;;;19.23;3.70;;;;;;;;;;5075503;28;20025;-75
2021/04/08 11:35:25;;;;;;;10.77;3.58;;;;;;;;;;5074374;28;20111;-75
2021/04/08 11:38:03;;;;;;;10.40;4.07;;;;;;;;;;5086976;28;20497;-75
2021/04/08 11:40:30;;;;;;;13.45;4.85;;;;;;;;;;5073642;28;20407;-75
2021/04/08 11:42:56;;;;;;;10.43;4.30;;;;;;;;;;5078209;28;20032;-77
2021/04/08 11:45:30;;;;;;;21.83;5.90;;;;;;;;;;5065413;28;20120;-75
2021/04/08 11:47:58;;;;;;;16.88;4.22;;;;;;;;;;5073755;28;20038;-74
2021/04/08 11:50:37;;;;;;;12.82;4.15;;;;;;;;;;5080350;28;20020;-74
2021/04/08 11:53:09;;;;;;;11.60;3.40;;;;;;;;;;5092655;28;20024;-74
2021/04/08 11:55:44;;;;;;;10.27;3.17;;;;;;;;;;5071228;28;20028;-73
2021/04/08 11:58:11;;;;;;;11.18;3.08;;;;;;;;;;5090488;28;20491;-75
2021/04/08 12:00:38;;;;;;;7.30;3.58;;;;;;;;;;5078976;28;20028;-74
2021/04/08 12:03:14;;;;;;;8.15;3.03;;;;;;;;;;5075511;28;20085;-74
2021/04/08 12:05:40;;;;;;;10.25;4.72;;;;;;;;;;5043715;28;20501;-75
2021/04/08 12:08:06;;;;;;;5.70;3.40;;;;;;;;;;5085912;28;20375;-75
2021/04/08 12:10:33;;;;;;;11.55;3.58;;;;;;;;;;5075699;28;20108;-75
2021/04/08 12:13:01;;;;;;;8.75;3.67;;;;;;;;;;5077040;28;20046;-75
2021/04/08 12:15:49;;;;;;;15.32;4.80;;;;;;;;;;5067297;28;20480;-76
2021/04/08 12:18:18;;;;;;;6.10;3.08;;;;;;;;;;5087376;28;20035;-75
2021/04/08 12:20:48;;;;;;;7.53;3.60;;;;;;;;;;5074346;28;20075;-76
2021/04/08 12:23:14;;;;;;;8.75;3.17;;;;;;;;;;5063093;28;20020;-76
2021/04/08 12:25:44;;;;;;;8.88;3.30;;;;;;;;;;5090818;28;20539;-76
2021/04/08 12:28:11;;;;;;;6.72;3.85;;;;;;;;;;5089437;28;20550;-76
2021/04/08 12:30:46;;;;;;;7.43;3.35;;;;;;;;;;5088415;28;20478;-76
2021/04/08 12:33:12;;;;;;;9.88;4.18;;;;;;;;;;5089041;28;20016;-75
2021/04/08 12:35:38;;;;;;;6.82;3.33;;;;;;;;;;5091291;28;20076;-75
2021/04/08 12:38:04;;;;;;;8.25;2.92;;;;;;;;;;5089123;28;20099;-76
2021/04/08 12:40:30;;;;;;;9.25;3.50;;;;;;;;;;5080294;28;20047;-75
2021/04/08 12:42:56;;;;;;;7.82;3.05;;;;;;;;;;5080527;28;20032;-76
2021/04/08 12:45:22;;;;;;;5.25;2.70;;;;;;;;;;5078401;28;20028;-76
2021/04/08 12:47:48;;;;;;;6.57;2.60;;;;;;;;;;5075684;28;20024;-76
2021/04/08 12:50:14;;;;;;;8.98;2.72;;;;;;;;;;5072978;28;20047;-76
2021/04/08 12:52:40;;;;;;;8.05;2.88;;;;;;;;;;5059423;28;20021;-76
2021/04/08 12:55:07;;;;;;;4.43;2.50;;;;;;;;;;5080969;28;20094;-75
2021/04/08 12:57:33;;;;;;;7.45;2.60;;;;;;;;;;5066468;28;20036;-75
2021/04/08 13:00:00;;;;;;;4.60;2.10;;;;;;;;;;5076174;28;20081;-75
2021/04/08 13:02:26;;;;;;;6.90;2.20;;;;;;;;;;5081607;28;20024;-75
2021/04/08 13:04:52;;;;;;;8.82;2.97;;;;;;;;;;5069166;28;20060;-75
2021/04/08 13:07:18;;;;;;;5.97;1.90;;;;;;;;;;5073678;28;20025;-75
2021/04/08 13:09:45;;;;;;;10.00;2.58;;;;;;;;;;5071325;28;20048;-75
2021/04/08 13:12:11;;;;;;;3.10;1.95;;;;;;;;;;5085674;28;20039;-76
2021/04/08 13:14:37;;;;;;;9.52;1.80;;;;;;;;;;5060161;28;20100;-76
2021/04/08 13:17:03;;;;;;;5.25;1.67;;;;;;;;;;5091456;28;20710;-75
2021/04/08 13:19:29;;;;;;;9.68;2.15;;;;;;;;;;5072352;28;20027;-75
2021/04/08 13:21:55;;;;;;;8.50;1.85;;;;;;;;;;5090258;28;20020;-75
2021/04/08 13:24:21;;;;;;;5.90;2.17;;;;;;;;;;5069563;28;20440;-75
2021/04/08 13:26:47;;;;;;;10.45;2.60;;;;;;;;;;5091273;28;20418;-75
2021/04/08 13:29:13;;;;;;;6.40;2.10;;;;;;;;;;5090837;28;20385;-75
2021/04/08 13:31:39;;;;;;;12.80;4.07;;;;;;;;;;5082922;28;20097;-75
2021/04/08 13:34:05;;;;;;;8.98;2.60;;;;;;;;;;5091645;28;20493;-74
2021/04/08 13:36:31;;;;;;;10.52;2.70;;;;;;;;;;5090589;28;20028;-75
2021/04/08 13:38:57;;;;;;;8.77;2.58;;;;;;;;;;5089759;28;20036;-75
2021/04/08 13:41:23;;;;;;;5.72;2.17;;;;;;;;;;5086980;28;20035;-74
2021/04/08 13:43:49;;;;;;;5.45;2.03;;;;;;;;;;5077413;28;20033;-74
2021/04/08 13:46:16;;;;;;;6.57;2.47;;;;;;;;;;5059067;28;20029;-75
2021/04/08 13:48:42;;;;;;;6.45;2.20;;;;;;;;;;5064063;28;20123;-74
2021/04/08 13:51:08;;;;;;;8.80;2.33;;;;;;;;;;5059376;28;20115;-74
2021/04/08 13:53:34;;;;;;;21.58;4.47;;;;;;;;;;5068553;28;20036;-75
2021/04/08 13:56:00;;;;;;;9.95;2.55;;;;;;;;;;5073951;28;20017;-75
2021/04/08 13:58:26;;;;;;;15.57;2.45;;;;;;;;;;5064948;28;20051;-75
2021/04/08 14:00:53;;;;;;;6.75;2.00;;;;;;;;;;5060848;28;20032;-75
2021/04/08 14:03:19;;;;;;;6.88;1.92;;;;;;;;;;5068985;28;20399;-75
2021/04/08 14:05:45;;;;;;;5.60;2.00;;;;;;;;;;5075358;28;20028;-76
2021/04/08 14:08:11;;;;;;;10.40;2.10;;;;;;;;;;5061493;28;20033;-75
2021/04/08 14:10:37;;;;;;;6.13;2.38;;;;;;;;;;5069421;28;20737;-75
2021/04/08 14:13:03;;;;;;;5.35;2.47;;;;;;;;;;5083365;28;20062;-76
2021/04/08 14:15:29;;;;;;;5.65;1.85;;;;;;;;;;5061557;28;20033;-75
2021/04/08 14:17:55;;;;;;;7.47;2.00;;;;;;;;;;5082973;28;20025;-75
2021/04/08 14:20:22;;;;;;;7.18;1.73;;;;;;;;;;5078351;28;20044;-75
2021/04/08 14:22:48;;;;;;;6.68;2.05;;;;;;;;;;5074613;28;20414;-75
2021/04/08 14:25:14;;;;;;;7.25;2.00;;;;;;;;;;5085671;28;20028;-75
2021/04/08 14:27:40;;;;;;;6.57;1.95;;;;;;;;;;5090210;28;20032;-75
2021/04/08 14:30:07;;;;;;;11.95;2.47;;;;;;;;;;5087545;28;20402;-75
2021/04/08 14:32:34;;;;;;;13.50;3.00;;;;;;;;;;5083409;28;20107;-74
2021/04/08 14:35:01;;;;;;;12.23;3.35;;;;;;;;;;5087581;28;20040;-75
2021/04/08 14:37:27;;;;;;;10.10;3.13;;;;;;;;;;5078084;28;20024;-75
2021/04/08 14:39:53;;;;;;;11.02;3.83;;;;;;;;;;5075207;28;20024;-75
2021/04/08 14:42:19;;;;;;;13.23;2.70;;;;;;;;;;5089738;28;20025;-74
2021/04/08 14:44:45;;;;;;;13.73;2.72;;;;;;;;;;5076192;28;20472;-74